SAS63P BGGH-ENZV
Flight info
| Callsign | SAS63P |
|---|---|
| Flight time | N/A |
| Altitude | 37000 |
| Route | 66N043W 68N033W/M080F350 69N022W DCT 6922N DCT 69N022W 67N013W 65N006W DCT ISVIG/N0457F350 DCT IPTOK DCT BEGOD |
| Aircraft | B738/M-SDE2E3FGHIRWXY/LB1 |
Departure
| Time | 2026-04-28 07:52 |
|---|---|
| Airport | Nuuk International Airport (BGGH) |
Arrival
| Time | N/A |
|---|---|
| Airport | Stavanger Airport, Sola (ENZV) |
| Time | Latitude | Longitude | Altitude | Speed | Heading |
|---|---|---|---|---|---|
| 2026-04-28 07:42 | 64.18493 | -51.67905 | 287 ft | 0 kts | 133° |
| 2026-04-28 07:49 | 64.18493 | -51.67904 | 287 ft | 0 kts | 133° |
| 2026-04-28 07:49 | 64.18496 | -51.67879 | 287 ft | 3 kts | 51° |
| 2026-04-28 07:49 | 64.18517 | -51.67922 | 291 ft | 5 kts | 301° |
| 2026-04-28 07:49 | 64.18560 | -51.67941 | 287 ft | 10 kts | 11° |
| 2026-04-28 07:50 | 64.18635 | -51.68058 | 287 ft | 18 kts | 297° |
| 2026-04-28 07:50 | 64.18608 | -51.68281 | 291 ft | 21 kts | 201° |
| 2026-04-28 07:50 | 64.18452 | -51.68401 | 292 ft | 25 kts | 198° |
| 2026-04-28 07:50 | 64.18293 | -51.68516 | 286 ft | 23 kts | 190° |
| 2026-04-28 07:51 | 64.18175 | -51.68516 | 286 ft | 12 kts | 202° |
| 2026-04-28 07:51 | 64.18197 | -51.68587 | 286 ft | 7 kts | 19° |
| 2026-04-28 07:51 | 64.18201 | -51.68584 | 286 ft | 0 kts | 18° |
| 2026-04-28 07:51 | 64.18332 | -51.68488 | 287 ft | 57 kts | 18° |
| 2026-04-28 07:52 | 64.18956 | -51.68023 | 288 ft | 129 kts | 18° |
| 2026-04-28 07:52 | 64.19984 | -51.67264 | 491 ft | 171 kts | 17° |
| 2026-04-28 07:52 | 64.21156 | -51.66391 | 1401 ft | 182 kts | 15° |
| 2026-04-28 07:52 | 64.22332 | -51.65209 | 2400 ft | 185 kts | 21° |
| 2026-04-28 07:53 | 64.23628 | -51.64630 | 2773 ft | 207 kts | 346° |
| 2026-04-28 07:53 | 64.24887 | -51.66479 | 3180 ft | 230 kts | 303° |
| 2026-04-28 07:53 | 64.25273 | -51.70076 | 4074 ft | 242 kts | 264° |
| 2026-04-28 07:53 | 64.24549 | -51.73600 | 5071 ft | 255 kts | 228° |
| 2026-04-28 07:54 | 64.23088 | -51.75970 | 6002 ft | 263 kts | 221° |
| 2026-04-28 07:54 | 64.21697 | -51.78779 | 6863 ft | 268 kts | 223° |
| 2026-04-28 07:54 | 64.19950 | -51.80579 | 7691 ft | 286 kts | 188° |
| 2026-04-28 07:54 | 64.17986 | -51.79879 | 8524 ft | 296 kts | 159° |
| 2026-04-28 07:55 | 64.16048 | -51.78083 | 9359 ft | 303 kts | 161° |
| 2026-04-28 07:55 | 64.14024 | -51.76774 | 10122 ft | 308 kts | 169° |
| 2026-04-28 07:55 | 64.11899 | -51.75341 | 10495 ft | 333 kts | 153° |
| 2026-04-28 07:55 | 64.09885 | -51.72366 | 10765 ft | 356 kts | 144° |
| 2026-04-28 07:56 | 64.07902 | -51.69027 | 10941 ft | 380 kts | 140° |
| 2026-04-28 07:56 | 64.05936 | -51.64776 | 11287 ft | 395 kts | 126° |
| 2026-04-28 07:56 | 64.04747 | -51.59163 | 11935 ft | 393 kts | 97° |
| 2026-04-28 07:56 | 64.04721 | -51.53028 | 12796 ft | 382 kts | 71° |
| 2026-04-28 07:57 | 64.05563 | -51.47429 | 13650 ft | 377 kts | 62° |
| 2026-04-28 07:57 | 64.06542 | -51.41767 | 14233 ft | 386 kts | 63° |
| 2026-04-28 07:57 | 64.07369 | -51.35846 | 14974 ft | 393 kts | 68° |
| 2026-04-28 07:57 | 64.08062 | -51.29784 | 15756 ft | 395 kts | 69° |
| 2026-04-28 07:58 | 64.08767 | -51.23653 | 16378 ft | 401 kts | 68° |
| 2026-04-28 07:58 | 64.09518 | -51.17532 | 16972 ft | 404 kts | 65° |
| 2026-04-28 07:58 | 64.10513 | -51.11546 | 17624 ft | 403 kts | 58° |
| 2026-04-28 07:58 | 64.11838 | -51.05909 | 18287 ft | 400 kts | 51° |
| 2026-04-28 07:59 | 64.13391 | -51.00601 | 18859 ft | 400 kts | 47° |
| 2026-04-28 07:59 | 64.14987 | -50.95422 | 19364 ft | 404 kts | 47° |
| 2026-04-28 07:59 | 64.16603 | -50.90063 | 19893 ft | 408 kts | 49° |
| 2026-04-28 07:59 | 64.18183 | -50.84568 | 20391 ft | 414 kts | 50° |
| 2026-04-28 08:00 | 64.19709 | -50.78986 | 20924 ft | 419 kts | 51° |
| 2026-04-28 08:00 | 64.21234 | -50.73204 | 21474 ft | 423 kts | 52° |
| 2026-04-28 08:00 | 64.22752 | -50.67349 | 21951 ft | 427 kts | 52° |
| 2026-04-28 08:00 | 64.24256 | -50.61512 | 22472 ft | 429 kts | 53° |
| 2026-04-28 08:01 | 64.25779 | -50.55597 | 23034 ft | 431 kts | 53° |
| 2026-04-28 08:01 | 64.27325 | -50.49597 | 23453 ft | 436 kts | 54° |
| 2026-04-28 08:01 | 64.28881 | -50.43560 | 23847 ft | 440 kts | 55° |
| 2026-04-28 08:01 | 64.30453 | -50.37438 | 24169 ft | 446 kts | 56° |
| 2026-04-28 08:02 | 64.31503 | -50.33356 | 24391 ft | 449 kts | 56° |
| 2026-04-28 08:02 | 64.33624 | -50.25070 | 24910 ft | 452 kts | 56° |
| 2026-04-28 08:02 | 64.34685 | -50.20909 | 25169 ft | 453 kts | 56° |
| 2026-04-28 08:02 | 64.36820 | -50.12521 | 25627 ft | 458 kts | 56° |
| 2026-04-28 08:03 | 64.37896 | -50.08286 | 25833 ft | 460 kts | 56° |
| 2026-04-28 08:03 | 64.39531 | -50.01883 | 26159 ft | 463 kts | 55° |
| 2026-04-28 08:03 | 64.41767 | -49.93402 | 26600 ft | 467 kts | 56° |
| 2026-04-28 08:03 | 64.42928 | -49.89068 | 26789 ft | 469 kts | 56° |
| 2026-04-28 08:04 | 64.44660 | -49.82619 | 27074 ft | 472 kts | 56° |
| 2026-04-28 08:04 | 64.46378 | -49.76199 | 27387 ft | 475 kts | 56° |
| 2026-04-28 08:04 | 64.48122 | -49.69639 | 27712 ft | 476 kts | 56° |
| 2026-04-28 08:04 | 64.49860 | -49.63060 | 28144 ft | 476 kts | 56° |
| 2026-04-28 08:05 | 64.51580 | -49.56511 | 28610 ft | 474 kts | 56° |
| 2026-04-28 08:05 | 64.53278 | -49.50014 | 29053 ft | 475 kts | 56° |
| 2026-04-28 08:05 | 64.54995 | -49.43425 | 29434 ft | 476 kts | 56° |
| 2026-04-28 08:05 | 64.56715 | -49.36805 | 29846 ft | 476 kts | 56° |
| 2026-04-28 08:06 | 64.58399 | -49.30305 | 30264 ft | 475 kts | 56° |
| 2026-04-28 08:06 | 64.60111 | -49.23678 | 30639 ft | 475 kts | 56° |
| 2026-04-28 08:06 | 64.61816 | -49.17066 | 30953 ft | 475 kts | 56° |
| 2026-04-28 08:06 | 64.63517 | -49.10445 | 31228 ft | 476 kts | 56° |
| 2026-04-28 08:07 | 64.65201 | -49.03874 | 31513 ft | 477 kts | 57° |
| 2026-04-28 08:07 | 64.66904 | -48.97207 | 31828 ft | 476 kts | 57° |
| 2026-04-28 08:07 | 64.68608 | -48.90513 | 32166 ft | 476 kts | 57° |
| 2026-04-28 08:07 | 64.70278 | -48.83933 | 32445 ft | 477 kts | 57° |
| 2026-04-28 08:08 | 64.71976 | -48.77227 | 32692 ft | 478 kts | 57° |
| 2026-04-28 08:08 | 64.73677 | -48.70483 | 32944 ft | 479 kts | 57° |
| 2026-04-28 08:08 | 64.75349 | -48.63836 | 33247 ft | 478 kts | 57° |
| 2026-04-28 08:08 | 64.77040 | -48.57095 | 33572 ft | 478 kts | 58° |
| 2026-04-28 08:09 | 64.78727 | -48.50346 | 33859 ft | 478 kts | 58° |
| 2026-04-28 08:09 | 64.80392 | -48.43670 | 34089 ft | 478 kts | 58° |
| 2026-04-28 08:09 | 64.82071 | -48.36915 | 34296 ft | 478 kts | 58° |
| 2026-04-28 08:09 | 64.83749 | -48.30141 | 34505 ft | 478 kts | 58° |
| 2026-04-28 08:10 | 64.85402 | -48.23447 | 34710 ft | 478 kts | 58° |
| 2026-04-28 08:10 | 64.87069 | -48.16675 | 34922 ft | 478 kts | 58° |
| 2026-04-28 08:10 | 64.88737 | -48.09880 | 35131 ft | 478 kts | 58° |
| 2026-04-28 08:10 | 64.90399 | -48.03090 | 35323 ft | 478 kts | 58° |
| 2026-04-28 08:11 | 64.92043 | -47.96348 | 35494 ft | 479 kts | 59° |
| 2026-04-28 08:11 | 64.93708 | -47.89503 | 35634 ft | 480 kts | 59° |
| 2026-04-28 08:11 | 64.95380 | -47.82608 | 35770 ft | 482 kts | 59° |
| 2026-04-28 08:11 | 64.97041 | -47.75737 | 35958 ft | 482 kts | 59° |
| 2026-04-28 08:12 | 64.98685 | -47.68913 | 36170 ft | 481 kts | 59° |
| 2026-04-28 08:12 | 65.00340 | -47.62013 | 36399 ft | 480 kts | 59° |
| 2026-04-28 08:12 | 65.01984 | -47.55147 | 36605 ft | 479 kts | 60° |
| 2026-04-28 08:12 | 65.03611 | -47.48335 | 36724 ft | 481 kts | 59° |
| 2026-04-28 08:13 | 65.05259 | -47.41411 | 36839 ft | 479 kts | 60° |
| 2026-04-28 08:13 | 65.06892 | -47.34523 | 36898 ft | 476 kts | 59° |
| 2026-04-28 08:13 | 65.10115 | -47.20877 | 36890 ft | 479 kts | 60° |
| 2026-04-28 08:14 | 65.13381 | -47.06959 | 36907 ft | 482 kts | 59° |
| 2026-04-28 08:14 | 65.16624 | -46.93043 | 36888 ft | 485 kts | 60° |
| 2026-04-28 08:15 | 65.19898 | -46.78892 | 36890 ft | 488 kts | 60° |
| 2026-04-28 08:15 | 65.23158 | -46.64729 | 36886 ft | 489 kts | 60° |
| 2026-04-28 08:16 | 65.26413 | -46.50481 | 36881 ft | 486 kts | 60° |
| 2026-04-28 08:16 | 65.29600 | -46.36430 | 36852 ft | 482 kts | 60° |
| 2026-04-28 08:17 | 65.32784 | -46.22313 | 36867 ft | 481 kts | 61° |
| 2026-04-28 08:17 | 65.35948 | -46.08193 | 36842 ft | 484 kts | 60° |
| 2026-04-28 08:18 | 65.39134 | -45.93894 | 36841 ft | 486 kts | 61° |
| 2026-04-28 08:18 | 65.42317 | -45.79499 | 36832 ft | 487 kts | 61° |
| 2026-04-28 08:19 | 65.45465 | -45.65170 | 36831 ft | 486 kts | 62° |
| 2026-04-28 08:19 | 65.48600 | -45.50797 | 36799 ft | 482 kts | 62° |
| 2026-04-28 08:20 | 65.51685 | -45.36546 | 36817 ft | 479 kts | 62° |
| 2026-04-28 08:20 | 65.54759 | -45.22257 | 36778 ft | 481 kts | 62° |
| 2026-04-28 08:21 | 65.57823 | -45.07925 | 36775 ft | 483 kts | 62° |
| 2026-04-28 08:21 | 65.60912 | -44.93383 | 36795 ft | 486 kts | 62° |
| 2026-04-28 08:22 | 65.64000 | -44.78740 | 36763 ft | 489 kts | 63° |
| 2026-04-28 08:22 | 65.67058 | -44.64137 | 36751 ft | 487 kts | 63° |
| 2026-04-28 08:23 | 65.70107 | -44.49474 | 36742 ft | 483 kts | 63° |
| 2026-04-28 08:23 | 65.73107 | -44.34949 | 36736 ft | 482 kts | 63° |
| 2026-04-28 08:24 | 65.76100 | -44.20353 | 36698 ft | 485 kts | 63° |
| 2026-04-28 08:24 | 65.79111 | -44.05568 | 36687 ft | 486 kts | 64° |
| 2026-04-28 08:25 | 65.82087 | -43.90853 | 36677 ft | 485 kts | 64° |
| 2026-04-28 08:26 | 65.86552 | -43.68581 | 36668 ft | 485 kts | 64° |
| 2026-04-28 08:26 | 65.89485 | -43.53819 | 36656 ft | 485 kts | 65° |
| 2026-04-28 08:27 | 65.92423 | -43.38923 | 36660 ft | 485 kts | 65° |
| 2026-04-28 08:27 | 65.95324 | -43.24108 | 36621 ft | 485 kts | 65° |
| 2026-04-28 08:28 | 65.98235 | -43.09143 | 36608 ft | 485 kts | 66° |
| 2026-04-28 08:28 | 66.01212 | -42.94307 | 36537 ft | 487 kts | 62° |
| 2026-04-28 08:29 | 66.04699 | -42.80021 | 36558 ft | 487 kts | 58° |
| 2026-04-28 08:29 | 66.08364 | -42.65937 | 36488 ft | 487 kts | 58° |
| 2026-04-28 08:30 | 66.11954 | -42.51802 | 36503 ft | 487 kts | 60° |
| 2026-04-28 08:30 | 66.15480 | -42.37470 | 36425 ft | 486 kts | 60° |
| 2026-04-28 08:31 | 66.18942 | -42.23172 | 36407 ft | 486 kts | 60° |
| 2026-04-28 08:31 | 66.22405 | -42.08783 | 36383 ft | 485 kts | 60° |
| 2026-04-28 08:32 | 66.25841 | -41.94434 | 36384 ft | 485 kts | 60° |
| 2026-04-28 08:32 | 66.29280 | -41.79992 | 36364 ft | 484 kts | 61° |
| 2026-04-28 08:33 | 66.32684 | -41.65610 | 36377 ft | 484 kts | 61° |
| 2026-04-28 08:33 | 66.36082 | -41.51148 | 36370 ft | 484 kts | 62° |
| 2026-04-28 08:34 | 66.39481 | -41.36584 | 36369 ft | 485 kts | 62° |
| 2026-04-28 08:34 | 66.42849 | -41.22058 | 36369 ft | 485 kts | 62° |
| 2026-04-28 08:35 | 66.46227 | -41.07395 | 36355 ft | 485 kts | 62° |
| 2026-04-28 08:35 | 66.49575 | -40.92761 | 36378 ft | 485 kts | 63° |
| 2026-04-28 08:36 | 66.52896 | -40.78140 | 36378 ft | 485 kts | 63° |
| 2026-04-28 08:36 | 66.56241 | -40.63314 | 36375 ft | 486 kts | 63° |
| 2026-04-28 08:37 | 66.59543 | -40.48580 | 36384 ft | 486 kts | 63° |
| 2026-04-28 08:37 | 66.62841 | -40.33765 | 36367 ft | 486 kts | 64° |
| 2026-04-28 08:38 | 66.66140 | -40.18845 | 36389 ft | 486 kts | 64° |
| 2026-04-28 08:38 | 66.69404 | -40.03974 | 36389 ft | 486 kts | 64° |
| 2026-04-28 08:39 | 66.72676 | -39.88964 | 36381 ft | 486 kts | 64° |
| 2026-04-28 08:39 | 66.75917 | -39.73989 | 36393 ft | 486 kts | 64° |
| 2026-04-28 08:40 | 66.79142 | -39.58985 | 36401 ft | 487 kts | 64° |
| 2026-04-28 08:40 | 66.82383 | -39.43803 | 36400 ft | 487 kts | 64° |
| 2026-04-28 08:41 | 66.85582 | -39.28707 | 36374 ft | 487 kts | 65° |
| 2026-04-28 08:41 | 66.88764 | -39.13587 | 36376 ft | 487 kts | 65° |
| 2026-04-28 08:42 | 66.91957 | -38.98300 | 36382 ft | 487 kts | 65° |
| 2026-04-28 08:42 | 66.95114 | -38.83079 | 36362 ft | 487 kts | 65° |
| 2026-04-28 08:43 | 66.98274 | -38.67739 | 36392 ft | 486 kts | 66° |
| 2026-04-28 08:43 | 67.01405 | -38.52421 | 36375 ft | 486 kts | 66° |
| 2026-04-28 08:44 | 67.04504 | -38.37148 | 36382 ft | 487 kts | 66° |
| 2026-04-28 08:44 | 67.07623 | -38.21662 | 36403 ft | 487 kts | 66° |
| 2026-04-28 08:45 | 67.10704 | -38.06256 | 36386 ft | 487 kts | 66° |
| 2026-04-28 08:45 | 67.13790 | -37.90709 | 36403 ft | 486 kts | 67° |
| 2026-04-28 08:46 | 67.16839 | -37.75234 | 36402 ft | 487 kts | 67° |
| 2026-04-28 08:46 | 67.19885 | -37.59657 | 36399 ft | 487 kts | 67° |
| 2026-04-28 08:47 | 67.22913 | -37.44058 | 36429 ft | 487 kts | 67° |
| 2026-04-28 08:47 | 67.25940 | -37.28343 | 36392 ft | 487 kts | 68° |
| 2026-04-28 08:48 | 67.28930 | -37.12701 | 36380 ft | 487 kts | 68° |
| 2026-04-28 08:48 | 67.31928 | -36.96900 | 36390 ft | 488 kts | 68° |
| 2026-04-28 08:49 | 67.34893 | -36.81152 | 36414 ft | 489 kts | 68° |
| 2026-04-28 08:49 | 67.37877 | -36.65183 | 36409 ft | 491 kts | 68° |
| 2026-04-28 08:50 | 67.40349 | -36.51855 | 36434 ft | 491 kts | 68° |
| 2026-04-28 08:50 | 67.43797 | -36.33123 | 36383 ft | 492 kts | 69° |
| 2026-04-28 08:51 | 67.46724 | -36.17082 | 36435 ft | 493 kts | 69° |
| 2026-04-28 08:51 | 67.49179 | -36.03532 | 36451 ft | 492 kts | 69° |
| 2026-04-28 08:52 | 67.52082 | -35.87388 | 36462 ft | 493 kts | 69° |
| 2026-04-28 08:52 | 67.54970 | -35.71204 | 36476 ft | 492 kts | 69° |
| 2026-04-28 08:53 | 67.57851 | -35.54922 | 36455 ft | 492 kts | 70° |
| 2026-04-28 08:53 | 67.60694 | -35.38725 | 36512 ft | 490 kts | 70° |
| 2026-04-28 08:54 | 67.63537 | -35.22399 | 36519 ft | 489 kts | 70° |
| 2026-04-28 08:54 | 67.66340 | -35.06167 | 36494 ft | 490 kts | 70° |
| 2026-04-28 08:55 | 67.69133 | -34.89860 | 36523 ft | 489 kts | 70° |
| 2026-04-28 08:55 | 67.71908 | -34.73525 | 36492 ft | 490 kts | 71° |
| 2026-04-28 08:56 | 67.74671 | -34.57131 | 36516 ft | 488 kts | 71° |
| 2026-04-28 08:56 | 67.77425 | -34.40641 | 36499 ft | 489 kts | 71° |
| 2026-04-28 08:57 | 67.80146 | -34.24219 | 36517 ft | 489 kts | 71° |
| 2026-04-28 08:57 | 67.82850 | -34.07763 | 36520 ft | 489 kts | 71° |
| 2026-04-28 08:58 | 67.85557 | -33.91150 | 36510 ft | 490 kts | 72° |
| 2026-04-28 08:58 | 67.88227 | -33.74622 | 36520 ft | 489 kts | 72° |
| 2026-04-28 08:59 | 67.90887 | -33.58009 | 36523 ft | 491 kts | 72° |
| 2026-04-28 08:59 | 67.93542 | -33.41287 | 36538 ft | 492 kts | 72° |
| 2026-04-28 09:00 | 67.96198 | -33.24427 | 36524 ft | 492 kts | 73° |
| 2026-04-28 09:00 | 67.98807 | -33.07620 | 36541 ft | 490 kts | 76° |
| 2026-04-28 09:01 | 68.00109 | -32.90132 | 36600 ft | 475 kts | 91° |
| 2026-04-28 09:01 | 68.00444 | -32.72566 | 36559 ft | 474 kts | 95° |
| 2026-04-28 09:02 | 68.00547 | -32.55003 | 36546 ft | 475 kts | 95° |
| 2026-04-28 09:02 | 68.00646 | -32.37380 | 36548 ft | 476 kts | 95° |
| 2026-04-28 09:03 | 68.00769 | -32.19702 | 36543 ft | 476 kts | 95° |
| 2026-04-28 09:03 | 68.00893 | -32.02072 | 36548 ft | 477 kts | 95° |
| 2026-04-28 09:04 | 68.01001 | -31.84370 | 36530 ft | 476 kts | 95° |
| 2026-04-28 09:04 | 68.01088 | -31.66822 | 36566 ft | 474 kts | 96° |
| 2026-04-28 09:05 | 68.01153 | -31.49277 | 36573 ft | 474 kts | 96° |
| 2026-04-28 09:05 | 68.01199 | -31.31635 | 36570 ft | 473 kts | 96° |
| 2026-04-28 09:06 | 68.01227 | -31.14173 | 36586 ft | 473 kts | 96° |
| 2026-04-28 09:06 | 68.01236 | -30.96546 | 36582 ft | 473 kts | 96° |
| 2026-04-28 09:07 | 68.01227 | -30.79110 | 36584 ft | 472 kts | 97° |
| 2026-04-28 09:07 | 68.01199 | -30.61525 | 36597 ft | 472 kts | 97° |
| 2026-04-28 09:08 | 68.01152 | -30.44092 | 36609 ft | 472 kts | 97° |
| 2026-04-28 09:08 | 68.01086 | -30.26549 | 36607 ft | 472 kts | 97° |
| 2026-04-28 09:09 | 68.01002 | -30.08982 | 36613 ft | 472 kts | 97° |
| 2026-04-28 09:09 | 68.00899 | -29.91528 | 36605 ft | 473 kts | 98° |
| 2026-04-28 09:10 | 68.00779 | -29.74036 | 36610 ft | 473 kts | 98° |
| 2026-04-28 09:10 | 68.00639 | -29.56465 | 36616 ft | 472 kts | 98° |
| 2026-04-28 09:11 | 68.00482 | -29.39008 | 36613 ft | 473 kts | 98° |
| 2026-04-28 09:11 | 68.00303 | -29.21427 | 36629 ft | 474 kts | 98° |
| 2026-04-28 09:12 | 68.00106 | -29.03790 | 36639 ft | 475 kts | 99° |
| 2026-04-28 09:12 | 67.99892 | -28.86234 | 36633 ft | 475 kts | 99° |
| 2026-04-28 09:13 | 67.99658 | -28.68592 | 36646 ft | 475 kts | 99° |
| 2026-04-28 09:13 | 67.99404 | -28.51004 | 36602 ft | 475 kts | 99° |
| 2026-04-28 09:14 | 67.99134 | -28.33470 | 36649 ft | 475 kts | 100° |
| 2026-04-28 09:14 | 67.98842 | -28.15816 | 36659 ft | 475 kts | 100° |
| 2026-04-28 09:15 | 67.98534 | -27.98276 | 36659 ft | 475 kts | 100° |
| 2026-04-28 09:15 | 67.98205 | -27.80654 | 36656 ft | 475 kts | 100° |
| 2026-04-28 09:16 | 67.97859 | -27.63129 | 36662 ft | 475 kts | 101° |
| 2026-04-28 09:16 | 67.97496 | -27.45638 | 36627 ft | 474 kts | 101° |
| 2026-04-28 09:17 | 67.97114 | -27.28104 | 36682 ft | 472 kts | 101° |
| 2026-04-28 09:17 | 67.96715 | -27.10704 | 36656 ft | 472 kts | 101° |
| 2026-04-28 09:18 | 67.96295 | -26.93205 | 36666 ft | 471 kts | 102° |
| 2026-04-28 09:18 | 67.95859 | -26.75841 | 36678 ft | 471 kts | 102° |
| 2026-04-28 09:19 | 67.95405 | -26.58506 | 36690 ft | 471 kts | 102° |
| 2026-04-28 09:19 | 67.94932 | -26.41136 | 36686 ft | 471 kts | 102° |
| 2026-04-28 09:20 | 67.94440 | -26.23699 | 36683 ft | 469 kts | 102° |
| 2026-04-28 09:20 | 67.93934 | -26.06458 | 36687 ft | 470 kts | 102° |
| 2026-04-28 09:21 | 67.93406 | -25.89073 | 36685 ft | 470 kts | 102° |
| 2026-04-28 09:21 | 67.92860 | -25.71747 | 36710 ft | 470 kts | 103° |
| 2026-04-28 09:22 | 67.92299 | -25.54496 | 36699 ft | 470 kts | 103° |
| 2026-04-28 09:22 | 67.91716 | -25.37136 | 36711 ft | 470 kts | 103° |
| 2026-04-28 09:23 | 67.91120 | -25.19934 | 36668 ft | 469 kts | 103° |
| 2026-04-28 09:23 | 67.90503 | -25.02645 | 36710 ft | 469 kts | 104° |
| 2026-04-28 09:24 | 67.89867 | -24.85430 | 36726 ft | 471 kts | 104° |
| 2026-04-28 09:24 | 67.89212 | -24.68143 | 36735 ft | 472 kts | 104° |
| 2026-04-28 09:25 | 67.88533 | -24.50723 | 36721 ft | 473 kts | 104° |
| 2026-04-28 09:25 | 67.87840 | -24.33387 | 36741 ft | 474 kts | 104° |
| 2026-04-28 09:26 | 67.87125 | -24.15977 | 36690 ft | 474 kts | 104° |
| 2026-04-28 09:26 | 67.86395 | -23.98654 | 36749 ft | 473 kts | 105° |
| 2026-04-28 09:27 | 67.85261 | -23.72635 | 36739 ft | 475 kts | 105° |
| 2026-04-28 09:27 | 67.84483 | -23.55320 | 36755 ft | 474 kts | 105° |
| 2026-04-28 09:28 | 67.83691 | -23.38052 | 36769 ft | 472 kts | 106° |
| 2026-04-28 09:28 | 67.82880 | -23.20787 | 36767 ft | 469 kts | 106° |
| 2026-04-28 09:29 | 67.82060 | -23.03747 | 36723 ft | 467 kts | 106° |
| 2026-04-28 09:29 | 67.81228 | -22.86842 | 36754 ft | 464 kts | 106° |
| 2026-04-28 09:30 | 67.80376 | -22.69919 | 36780 ft | 462 kts | 106° |
| 2026-04-28 09:30 | 67.79515 | -22.53188 | 36791 ft | 461 kts | 107° |
| 2026-04-28 09:31 | 67.78637 | -22.36458 | 36768 ft | 460 kts | 107° |
| 2026-04-28 09:31 | 67.77741 | -22.19701 | 36794 ft | 460 kts | 107° |
| 2026-04-28 09:32 | 67.76824 | -22.02916 | 36739 ft | 460 kts | 107° |
| 2026-04-28 09:32 | 67.75897 | -21.86245 | 36809 ft | 460 kts | 107° |
| 2026-04-28 09:33 | 67.74943 | -21.69442 | 36763 ft | 463 kts | 108° |
| 2026-04-28 09:33 | 67.73972 | -21.52633 | 36791 ft | 466 kts | 108° |
| 2026-04-28 09:34 | 67.72980 | -21.35800 | 36822 ft | 468 kts | 108° |
| 2026-04-28 09:34 | 67.71959 | -21.18760 | 36827 ft | 470 kts | 108° |
| 2026-04-28 09:35 | 67.70925 | -21.01792 | 36819 ft | 471 kts | 108° |
| 2026-04-28 09:35 | 67.69873 | -20.84837 | 36779 ft | 470 kts | 108° |
| 2026-04-28 09:36 | 67.68798 | -20.67822 | 36805 ft | 471 kts | 108° |
| 2026-04-28 09:36 | 67.67888 | -20.53655 | 36826 ft | 471 kts | 108° |
| 2026-04-28 09:37 | 67.66593 | -20.33831 | 36837 ft | 472 kts | 108° |
| 2026-04-28 09:37 | 67.65653 | -20.19670 | 36827 ft | 472 kts | 109° |
| 2026-04-28 09:38 | 67.64313 | -19.99824 | 36833 ft | 471 kts | 109° |
| 2026-04-28 09:38 | 67.63153 | -19.82935 | 36835 ft | 470 kts | 109° |
| 2026-04-28 09:39 | 67.61978 | -19.66121 | 36824 ft | 471 kts | 109° |
| 2026-04-28 09:39 | 67.60778 | -19.49210 | 36834 ft | 471 kts | 109° |
| 2026-04-28 09:40 | 67.59567 | -19.32409 | 36849 ft | 471 kts | 109° |
| 2026-04-28 09:40 | 67.58330 | -19.15507 | 36853 ft | 471 kts | 110° |
| 2026-04-28 09:41 | 67.57083 | -18.98723 | 36846 ft | 471 kts | 110° |
| 2026-04-28 09:41 | 67.56027 | -18.84700 | 36814 ft | 471 kts | 110° |
| 2026-04-28 09:42 | 67.54744 | -18.67873 | 36858 ft | 469 kts | 110° |
| 2026-04-28 09:42 | 67.53451 | -18.51194 | 36863 ft | 470 kts | 110° |
| 2026-04-28 09:43 | 67.52131 | -18.34391 | 36850 ft | 471 kts | 110° |
| 2026-04-28 09:43 | 67.50802 | -18.17709 | 36823 ft | 471 kts | 111° |
| 2026-04-28 09:44 | 67.49455 | -18.01034 | 36863 ft | 470 kts | 111° |
| 2026-04-28 09:44 | 67.48082 | -17.84276 | 36873 ft | 470 kts | 111° |
| 2026-04-28 09:45 | 67.46703 | -17.67682 | 36852 ft | 470 kts | 112° |
| 2026-04-28 09:45 | 67.45299 | -17.51016 | 36853 ft | 473 kts | 112° |
| 2026-04-28 09:46 | 67.43863 | -17.34204 | 36857 ft | 476 kts | 112° |
| 2026-04-28 09:46 | 67.42411 | -17.17406 | 36874 ft | 478 kts | 112° |
| 2026-04-28 09:47 | 67.40931 | -17.00502 | 36867 ft | 479 kts | 112° |
| 2026-04-28 09:47 | 67.39439 | -16.83672 | 36879 ft | 479 kts | 112° |
| 2026-04-28 09:48 | 67.37922 | -16.66785 | 36819 ft | 478 kts | 112° |
| 2026-04-28 09:48 | 67.36391 | -16.49963 | 36879 ft | 477 kts | 112° |
| 2026-04-28 09:49 | 67.34852 | -16.33282 | 36883 ft | 476 kts | 113° |
| 2026-04-28 09:49 | 67.33301 | -16.16671 | 36883 ft | 476 kts | 113° |
| 2026-04-28 09:50 | 67.31723 | -15.99990 | 36881 ft | 476 kts | 113° |
| 2026-04-28 09:50 | 67.30134 | -15.83392 | 36895 ft | 475 kts | 113° |
| 2026-04-28 09:51 | 67.28524 | -15.66766 | 36833 ft | 476 kts | 113° |
| 2026-04-28 09:51 | 67.26894 | -15.50142 | 36912 ft | 476 kts | 113° |
| 2026-04-28 09:52 | 67.25253 | -15.33621 | 36912 ft | 478 kts | 113° |
| 2026-04-28 09:52 | 67.23578 | -15.16926 | 36896 ft | 481 kts | 113° |
| 2026-04-28 09:53 | 67.21872 | -15.00126 | 36898 ft | 483 kts | 114° |
| 2026-04-28 09:53 | 67.20161 | -14.83461 | 36912 ft | 483 kts | 114° |
| 2026-04-28 09:54 | 67.18417 | -14.66666 | 36840 ft | 484 kts | 113° |
| 2026-04-28 09:54 | 67.16665 | -14.50006 | 36926 ft | 483 kts | 113° |
| 2026-04-28 09:55 | 67.14885 | -14.33264 | 36919 ft | 484 kts | 113° |
| 2026-04-28 09:55 | 67.13097 | -14.16628 | 36912 ft | 485 kts | 114° |
| 2026-04-28 09:56 | 67.11273 | -13.99838 | 36912 ft | 486 kts | 114° |
| 2026-04-28 09:56 | 67.09445 | -13.83204 | 36930 ft | 485 kts | 114° |
| 2026-04-28 09:57 | 67.07594 | -13.66547 | 36882 ft | 485 kts | 114° |
| 2026-04-28 09:57 | 67.05734 | -13.49995 | 36943 ft | 484 kts | 114° |
| 2026-04-28 09:58 | 67.03844 | -13.33345 | 36944 ft | 485 kts | 114° |
| 2026-04-28 09:58 | 67.01951 | -13.16816 | 36930 ft | 487 kts | 114° |
| 2026-04-28 09:59 | 66.99898 | -13.00312 | 36893 ft | 480 kts | 121° |
| 2026-04-28 09:59 | 66.98376 | -12.92974 | 36913 ft | 464 kts | 134° |
| 2026-04-28 09:59 | 66.96477 | -12.86356 | 37065 ft | 458 kts | 136° |
| 2026-04-28 10:00 | 66.92779 | -12.72861 | 36973 ft | 469 kts | 130° |
| 2026-04-28 10:00 | 66.89476 | -12.58374 | 36917 ft | 474 kts | 128° |
| 2026-04-28 10:01 | 66.86143 | -12.43965 | 36935 ft | 475 kts | 129° |
| 2026-04-28 10:01 | 66.82638 | -12.29623 | 36949 ft | 477 kts | 130° |
| 2026-04-28 10:02 | 66.79070 | -12.15445 | 36973 ft | 479 kts | 131° |
| 2026-04-28 10:02 | 66.75468 | -12.01267 | 36949 ft | 480 kts | 131° |
| 2026-04-28 10:03 | 66.71834 | -11.87021 | 36971 ft | 479 kts | 131° |
| 2026-04-28 10:03 | 66.68226 | -11.72952 | 36976 ft | 479 kts | 131° |
| 2026-04-28 10:04 | 66.64587 | -11.58843 | 36987 ft | 478 kts | 131° |
| 2026-04-28 10:04 | 66.60960 | -11.44882 | 36988 ft | 477 kts | 130° |
| 2026-04-28 10:05 | 66.57301 | -11.30888 | 36990 ft | 478 kts | 130° |
| 2026-04-28 10:05 | 66.53646 | -11.16994 | 36984 ft | 479 kts | 131° |
| 2026-04-28 10:06 | 66.49948 | -11.03024 | 36994 ft | 479 kts | 131° |
| 2026-04-28 10:06 | 66.46259 | -10.89171 | 36995 ft | 480 kts | 131° |
| 2026-04-28 10:07 | 66.42535 | -10.75278 | 37007 ft | 479 kts | 131° |
| 2026-04-28 10:07 | 66.38829 | -10.61537 | 37011 ft | 479 kts | 131° |
| 2026-04-28 10:08 | 66.35103 | -10.47815 | 36970 ft | 479 kts | 130° |
| 2026-04-28 10:08 | 66.31347 | -10.34071 | 37021 ft | 479 kts | 131° |
| 2026-04-28 10:09 | 66.27728 | -10.20903 | 37038 ft | 481 kts | 131° |
| 2026-04-28 10:09 | 66.23931 | -10.07166 | 37010 ft | 483 kts | 131° |
| 2026-04-28 10:10 | 66.20142 | -9.93542 | 37040 ft | 483 kts | 131° |
| 2026-04-28 10:10 | 66.16302 | -9.79818 | 37056 ft | 483 kts | 131° |